Time;durP1;ratioP1;P1;durP2;ratioP2;P2;SDS_P1;SDS_P2;PMS_P1;PMS_P2;Temp;Humidity;BMP_temperature;BMP_pressure;BME280_temperature;BME280_humidity;BME280_pressure;Samples;Min_cycle;Max_cycle;Signal;HPM_P1;HPM_P2
2023/01/03 00:02:30;;;;;;;;;;;;;;;-2.69;86.77;94468.13;6295535;28;19920;-67
2023/01/03 00:05:33;;;;;;;;;;;;;;;-2.72;85.99;94469.16;6295242;28;20336;-67
2023/01/03 00:08:36;;;;;;;;;;;;;;;-2.70;86.38;94481.94;6295263;28;19924;-66
2023/01/03 00:15:02;;;;;;;;;;;;;;;-2.83;86.39;94502.31;6295392;28;19920;-67
2023/01/03 00:18:07;;;;;;;;;;;;;;;-2.77;86.74;94504.59;6295156;28;20386;-67
2023/01/03 00:21:10;;;;;;;;;;;;;;;-2.82;86.29;94519.41;6295796;28;20077;-68
2023/01/03 00:24:13;;;;;;;;;;;;;;;-2.79;86.30;94511.53;6294756;28;19920;-67
2023/01/03 00:27:15;;;;;;;;;;;;;;;-2.69;86.15;94511.06;6295389;28;19920;-68
2023/01/03 00:30:19;;;;;;;;;;;;;;;-2.72;85.43;94517.19;6295474;28;19927;-67
2023/01/03 00:33:25;;;;;;;;;;;;;;;-2.72;85.31;94515.47;6295156;28;19920;-67
2023/01/03 00:36:26;;;;;;;;;;;;;;;-2.80;85.47;94527.91;6295147;28;19927;-68
2023/01/03 00:39:28;;;;;;;;;;;;;;;-2.95;85.97;94528.66;6294524;28;20382;-68
2023/01/03 00:43:27;;;;;;;;;;;;;;;-2.93;85.24;94524.28;6295641;28;19931;-68
2023/01/03 00:45:54;;;;;;;;;;;;;;;-3.00;85.64;94525.47;6299781;28;19920;-67
2023/01/03 00:48:55;;;;;;;;;;;;;;;-3.07;85.84;94535.25;6299062;28;19920;-68
2023/01/03 00:51:59;;;;;;;;;;;;;;;-2.98;85.90;94539.09;6298759;28;19920;-67
2023/01/03 00:55:02;;;;;;;;;;;;;;;-3.00;85.19;94556.34;6298337;28;20360;-68
2023/01/03 00:58:10;;;;;;;;;;;;;;;-3.10;85.29;94562.88;6299455;28;19920;-68
2023/01/03 01:01:11;;;;;;;;;;;;;;;-3.05;85.21;94558.31;6297345;28;19927;-68
2023/01/03 01:04:14;;;;;;;;;;;;;;;-3.25;85.27;94554.97;6299232;28;19920;-67
2023/01/03 01:07:15;;;;;;;;;;;;;;;-3.20;85.66;94572.75;6298533;28;20286;-67
2023/01/03 01:10:19;;;;;;;;;;;;;;;-3.19;85.39;94566.72;6299159;28;19920;-68
2023/01/03 01:13:22;;;;;;;;;;;;;;;-3.27;85.45;94577.34;6298900;28;19967;-68
2023/01/03 01:16:30;;;;;;;;;;;;;;;-3.24;85.57;94584.09;6298459;28;20298;-67
2023/01/03 01:19:33;;;;;;;;;;;;;;;-3.32;85.79;94587.03;6298868;28;19946;-67
2023/01/03 01:22:37;;;;;;;;;;;;;;;-3.23;85.51;94591.75;6298895;28;19927;-68
2023/01/03 01:25:42;;;;;;;;;;;;;;;-3.25;85.42;94596.13;6299147;28;20301;-67
2023/01/03 01:28:43;;;;;;;;;;;;;;;-3.27;85.66;94610.78;6298673;28;20012;-67
2023/01/03 01:31:47;;;;;;;;;;;;;;;-3.28;85.33;94603.16;6298684;28;20374;-68
2023/01/03 01:34:52;;;;;;;;;;;;;;;-3.24;85.02;94604.66;6298493;28;19996;-68
2023/01/03 01:37:53;;;;;;;;;;;;;;;-3.30;85.16;94623.78;6298212;28;20385;-67
2023/01/03 01:40:56;;;;;;;;;;;;;;;-3.38;85.13;94624.16;6297698;28;19920;-67
2023/01/03 01:47:22;;;;;;;;;;;;;;;-3.39;85.38;94637.09;6298126;28;19920;-67
2023/01/03 01:50:26;;;;;;;;;;;;;;;-3.28;85.46;94640.00;6297643;28;19924;-68
2023/01/03 01:53:29;;;;;;;;;;;;;;;-3.34;85.28;94648.00;6297702;28;19928;-68
2023/01/03 01:56:33;;;;;;;;;;;;;;;-3.35;85.60;94643.75;6296632;28;19920;-68
2023/01/03 01:59:34;;;;;;;;;;;;;;;-3.39;85.44;94652.50;6297963;28;19931;-68
2023/01/03 02:02:35;;;;;;;;;;;;;;;-3.40;85.14;94666.25;6296396;28;19927;-67
2023/01/03 02:05:38;;;;;;;;;;;;;;;-3.42;85.57;94678.38;6296923;28;19956;-67
2023/01/03 02:08:39;;;;;;;;;;;;;;;-3.54;85.58;94674.59;6297669;28;19927;-68
2023/01/03 02:11:49;;;;;;;;;;;;;;;-3.45;85.53;94678.50;6296645;28;19920;-68
2023/01/03 02:14:58;;;;;;;;;;;;;;;-3.49;85.02;94693.22;6297627;28;19920;-67
2023/01/03 02:18:08;;;;;;;;;;;;;;;-3.44;85.21;94685.31;6297159;28;20005;-67
2023/01/03 02:21:23;;;;;;;;;;;;;;;-3.36;85.18;94693.50;6297332;28;20373;-68
2023/01/03 02:24:37;;;;;;;;;;;;;;;-3.49;84.75;94702.66;6297306;28;19920;-68
2023/01/03 02:27:57;;;;;;;;;;;;;;;-3.58;85.18;94703.09;6296720;28;20275;-67
2023/01/03 02:31:04;;;;;;;;;;;;;;;-3.53;85.46;94726.88;6296708;28;19916;-67
2023/01/03 02:34:07;;;;;;;;;;;;;;;-3.45;85.01;94722.22;6296745;28;20382;-68
2023/01/03 02:37:20;;;;;;;;;;;;;;;-3.52;84.76;94731.09;6296451;28;19920;-68
2023/01/03 02:40:30;;;;;;;;;;;;;;;-3.53;84.53;94743.13;6296344;28;19927;-67
2023/01/03 02:43:46;;;;;;;;;;;;;;;-3.71;84.82;94759.31;6296398;28;20394;-67
2023/01/03 02:46:56;;;;;;;;;;;;;;;-3.72;85.22;94757.66;6296406;28;20306;-68
2023/01/03 02:50:02;;;;;;;;;;;;;;;-3.84;85.03;94770.13;6296823;28;20297;-68
2023/01/03 02:53:07;;;;;;;;;;;;;;;-3.91;85.12;94762.75;6295904;28;20386;-67
2023/01/03 02:56:11;;;;;;;;;;;;;;;-3.96;85.26;94769.81;6296066;28;20314;-67
2023/01/03 02:59:15;;;;;;;;;;;;;;;-3.99;85.06;94780.22;6295620;28;19920;-67
2023/01/03 03:02:27;;;;;;;;;;;;;;;-4.08;85.18;94796.84;6296464;28;19920;-68
2023/01/03 03:05:33;;;;;;;;;;;;;;;-4.18;85.30;94798.97;6295925;28;20299;-68
2023/01/03 03:08:35;;;;;;;;;;;;;;;-4.11;85.26;94808.06;6295446;28;20417;-67
2023/01/03 03:15:06;;;;;;;;;;;;;;;-4.30;85.17;94802.84;6295441;28;19920;-67
2023/01/03 03:18:17;;;;;;;;;;;;;;;-4.33;84.85;94807.25;6295717;28;19947;-67
2023/01/03 03:24:48;;;;;;;;;;;;;;;-4.57;84.53;94804.78;6296185;28;20022;-67
2023/01/03 03:31:21;;;;;;;;;;;;;;;-4.70;84.32;94821.53;6295284;28;19920;-68
2023/01/03 03:34:27;;;;;;;;;;;;;;;-4.80;84.00;94838.19;6295816;28;20007;-69
2023/01/03 03:37:30;;;;;;;;;;;;;;;-4.70;83.72;94839.50;6295909;28;19928;-67
2023/01/03 03:47:25;;;;;;;;;;;;;;;-5.14;84.39;94847.13;6294662;28;19916;-69
2023/01/03 03:50:28;;;;;;;;;;;;;;;-5.05;83.85;94861.34;6295778;28;19924;-68
2023/01/03 03:53:36;;;;;;;;;;;;;;;-5.15;83.89;94862.53;6295509;28;20455;-67
2023/01/03 03:56:46;;;;;;;;;;;;;;;-5.27;83.52;94868.94;6295792;28;19965;-68
2023/01/03 03:59:53;;;;;;;;;;;;;;;-5.28;84.01;94882.66;6294337;28;19920;-68
2023/01/03 04:02:59;;;;;;;;;;;;;;;-5.19;84.41;94882.34;6294771;28;20416;-68
2023/01/03 04:06:06;;;;;;;;;;;;;;;-5.03;83.75;94882.63;6294944;28;19920;-67
2023/01/03 04:09:09;;;;;;;;;;;;;;;-5.17;83.52;94884.88;6294250;28;19995;-67
2023/01/03 04:12:14;;;;;;;;;;;;;;;-5.15;83.91;94883.91;6294645;28;20324;-68
2023/01/03 04:15:21;;;;;;;;;;;;;;;-5.23;83.35;94912.38;6294666;28;20019;-67
2023/01/03 04:18:34;;;;;;;;;;;;;;;-5.35;83.54;94906.81;6297403;28;19920;-68
2023/01/03 04:21:40;;;;;;;;;;;;;;;-5.26;83.74;94906.53;6300150;28;20313;-67
2023/01/03 04:24:50;;;;;;;;;;;;;;;-5.29;83.87;94922.03;6299816;28;20405;-68
2023/01/03 04:28:06;;;;;;;;;;;;;;;-5.36;84.36;94933.34;6300050;28;20394;-68
2023/01/03 04:31:15;;;;;;;;;;;;;;;-5.34;83.73;94939.28;6300162;28;19921;-67
2023/01/03 04:34:21;;;;;;;;;;;;;;;-5.25;84.00;94947.47;6299909;28;20370;-67
2023/01/03 04:37:30;;;;;;;;;;;;;;;-5.31;83.57;94949.44;6298612;28;19920;-67
2023/01/03 04:40:34;;;;;;;;;;;;;;;-5.42;83.99;94958.31;6297427;28;19924;-67
2023/01/03 04:44:03;;;;;;;;;;;;;;;-5.39;84.04;94966.78;6299647;28;19920;-67
2023/01/03 04:47:04;;;;;;;;;;;;;;;-5.26;83.36;94968.06;6299092;28;19970;-68
2023/01/03 04:50:09;;;;;;;;;;;;;;;-5.22;83.36;94990.97;6298869;28;19936;-67
2023/01/03 04:53:13;;;;;;;;;;;;;;;-5.22;83.41;94985.84;6298985;28;19920;-67
2023/01/03 04:56:27;;;;;;;;;;;;;;;-5.18;83.07;94984.00;6299209;28;19930;-67
2023/01/03 04:59:29;;;;;;;;;;;;;;;-5.18;83.06;94996.81;6298500;28;20496;-68
2023/01/03 05:02:34;;;;;;;;;;;;;;;-5.20;82.71;94998.63;6299165;28;20015;-67
2023/01/03 05:05:38;;;;;;;;;;;;;;;-5.35;82.84;94994.84;6299011;28;19920;-67
2023/01/03 05:08:42;;;;;;;;;;;;;;;-5.40;83.29;95016.38;6297788;28;19920;-67
2023/01/03 05:11:44;;;;;;;;;;;;;;;-5.37;83.14;95026.53;6298654;28;19920;-68
2023/01/03 05:14:48;;;;;;;;;;;;;;;-5.40;83.11;95021.50;6299024;28;19920;-68
2023/01/03 05:18:13;;;;;;;;;;;;;;;-5.38;82.90;95035.09;6298584;28;20309;-67
2023/01/03 05:28:02;;;;;;;;;;;;;;;-5.38;82.81;95035.94;6297731;28;19965;-68
2023/01/03 05:31:08;;;;;;;;;;;;;;;-5.37;83.26;95047.88;6297168;28;19920;-68
2023/01/03 05:34:14;;;;;;;;;;;;;;;-5.22;82.94;95047.38;6298575;28;19920;-67
2023/01/03 05:37:18;;;;;;;;;;;;;;;-5.15;82.90;95063.41;6297801;28;19920;-68
2023/01/03 05:40:19;;;;;;;;;;;;;;;-5.31;82.91;95065.63;6297479;28;19926;-68
2023/01/03 05:43:23;;;;;;;;;;;;;;;-5.21;82.78;95068.72;6298115;28;19920;-68
2023/01/03 05:46:26;;;;;;;;;;;;;;;-5.08;82.59;95085.38;6298016;28;19920;-67
2023/01/03 05:49:33;;;;;;;;;;;;;;;-5.08;82.44;95072.56;6297960;28;19920;-68
2023/01/03 05:52:36;;;;;;;;;;;;;;;-4.98;82.70;95080.81;6297566;28;20017;-68
2023/01/03 05:55:39;;;;;;;;;;;;;;;-5.12;82.29;95088.94;6298095;28;19920;-67
2023/01/03 05:58:43;;;;;;;;;;;;;;;-5.21;82.25;95078.97;6297826;28;20016;-67
2023/01/03 06:01:47;;;;;;;;;;;;;;;-5.26;82.93;95086.00;6297824;28;20012;-68
2023/01/03 06:04:48;;;;;;;;;;;;;;;-5.13;82.65;95097.50;6297032;28;19945;-68
2023/01/03 06:07:51;;;;;;;;;;;;;;;-5.22;82.83;95092.69;6297536;28;19920;-68
2023/01/03 06:10:56;;;;;;;;;;;;;;;-5.01;82.05;95094.56;6297230;28;19921;-68
2023/01/03 06:14:02;;;;;;;;;;;;;;;-5.04;82.36;95092.09;6297108;28;19967;-67
2023/01/03 06:20:26;;;;;;;;;;;;;;;-4.92;82.17;95095.16;6297151;28;19920;-69
2023/01/03 06:23:30;;;;;;;;;;;;;;;-4.91;82.17;95086.56;6297158;28;20679;-67
2023/01/03 06:26:31;;;;;;;;;;;;;;;-4.92;82.42;95095.16;6296498;28;19927;-68
2023/01/03 06:29:40;;;;;;;;;;;;;;;-4.91;82.56;95107.09;6296623;28;19972;-68
2023/01/03 06:32:44;;;;;;;;;;;;;;;-4.77;82.60;95121.13;6295724;28;20425;-68
2023/01/03 06:35:48;;;;;;;;;;;;;;;-4.78;82.62;95129.72;6296900;28;20421;-67
2023/01/03 06:38:52;;;;;;;;;;;;;;;-4.59;82.22;95124.78;6296653;28;20013;-69
2023/01/03 06:42:38;;;;;;;;;;;;;;;-4.61;82.46;95131.72;6296428;28;19920;-68
2023/01/03 06:55:30;;;;;;;;;;;;;;;-4.37;82.28;95119.78;6296358;28;19935;-68
2023/01/03 06:58:36;;;;;;;;;;;;;;;-4.38;82.32;95145.50;6296484;28;19920;-69
2023/01/03 07:01:40;;;;;;;;;;;;;;;-4.28;82.45;95154.56;6296112;28;19920;-69
2023/01/03 07:04:46;;;;;;;;;;;;;;;-4.30;82.18;95151.22;6296401;28;19990;-67
2023/01/03 07:07:52;;;;;;;;;;;;;;;-4.24;81.84;95163.84;6296273;28;19921;-69
2023/01/03 07:10:53;;;;;;;;;;;;;;;-4.20;81.75;95150.00;6296169;28;20293;-70
2023/01/03 07:13:57;;;;;;;;;;;;;;;-4.17;81.84;95152.47;6296046;28;19921;-68
2023/01/03 07:16:58;;;;;;;;;;;;;;;-4.15;82.25;95165.25;6295604;28;19924;-68
2023/01/03 07:19:59;;;;;;;;;;;;;;;-4.10;82.05;95164.22;6296028;28;19928;-69
2023/01/03 07:23:00;;;;;;;;;;;;;;;-4.00;81.80;95164.72;6295918;28;19924;-68
2023/01/03 07:26:04;;;;;;;;;;;;;;;-2.04;82.68;95174.22;6295777;28;19920;-69
2023/01/03 07:29:10;;;;;;;;;;;;;;;1.60;73.09;95169.94;6295974;28;20313;-68
2023/01/03 07:32:11;;;;;;;;;;;;;;;3.74;66.02;95174.25;6294944;28;19920;-68
2023/01/03 07:35:18;;;;;;;;;;;;;;;4.63;64.17;95188.31;6295116;28;19920;-69
2023/01/03 07:38:19;;;;;;;;;;;;;;;4.83;65.43;95164.31;6293978;28;19927;-68
2023/01/03 07:44:51;;;;;;;;;;;;;;;6.01;63.20;95184.59;6295630;28;20486;-69
2023/01/03 07:48:03;;;;;;;;;;;;;;;6.29;61.98;95183.38;6295482;28;19920;-68
2023/01/03 07:51:08;;;;;;;;;;;;;;;6.60;62.34;95195.91;6295182;28;19959;-67
2023/01/03 07:54:11;;;;;;;;;;;;;;;7.54;60.14;95198.16;6298684;28;19920;-67
2023/01/03 07:57:15;;;;;;;;;;;;;;;8.32;57.79;95201.44;6300233;28;20340;-67
2023/01/03 08:00:17;;;;;;;;;;;;;;;8.37;57.54;95220.25;6299749;28;19943;-67
2023/01/03 08:03:21;;;;;;;;;;;;;;;8.23;57.98;95223.19;6300363;28;19934;-68
2023/01/03 08:06:22;;;;;;;;;;;;;;;8.12;58.91;95225.84;6300214;28;19916;-67
2023/01/03 08:16:15;;;;;;;;;;;;;;;7.75;59.13;95226.19;6298975;28;20069;-67
2023/01/03 08:19:19;;;;;;;;;;;;;;;8.03;58.33;95235.28;6300254;28;19919;-67
2023/01/03 08:22:20;;;;;;;;;;;;;;;8.06;57.85;95224.53;6299514;28;19928;-67
2023/01/03 08:25:21;;;;;;;;;;;;;;;7.31;58.35;95235.78;6299798;28;19920;-68
2023/01/03 08:28:25;;;;;;;;;;;;;;;7.63;58.71;95239.28;6299363;28;19920;-65
2023/01/03 08:31:33;;;;;;;;;;;;;;;7.76;58.16;95249.63;6299884;28;19970;-67
2023/01/03 08:34:37;;;;;;;;;;;;;;;8.19;57.81;95235.69;6299787;28;19920;-66
2023/01/03 08:37:38;;;;;;;;;;;;;;;8.75;56.30;95232.84;6299489;28;20496;-66
2023/01/03 08:40:44;;;;;;;;;;;;;;;8.62;55.44;95226.13;6298546;28;19927;-67
2023/01/03 08:43:49;;;;;;;;;;;;;;;9.12;55.05;95227.09;6299406;28;20390;-66
2023/01/03 08:46:53;;;;;;;;;;;;;;;9.70;53.94;95223.03;6299743;28;20386;-66
2023/01/03 08:50:00;;;;;;;;;;;;;;;10.15;53.05;95223.38;6299422;28;20296;-66
2023/01/03 08:53:01;;;;;;;;;;;;;;;9.22;51.55;95221.88;6299510;28;20317;-67
2023/01/03 08:56:07;;;;;;;;;;;;;;;8.17;52.00;95242.03;6299657;28;20309;-68
2023/01/03 08:59:11;;;;;;;;;;;;;;;8.19;55.00;95240.13;6299130;28;19920;-67
2023/01/03 09:02:12;;;;;;;;;;;;;;;8.29;55.09;95259.34;6299408;28;20053;-68
2023/01/03 09:05:16;;;;;;;;;;;;;;;7.98;54.61;95277.56;6298309;28;19922;-67
2023/01/03 09:08:18;;;;;;;;;;;;;;;7.40;54.98;95290.81;6298605;28;19924;-66
2023/01/03 09:11:19;;;;;;;;;;;;;;;6.82;54.76;95278.75;6299058;28;19916;-67
2023/01/03 09:14:26;;;;;;;;;;;;;;;6.58;55.69;95302.34;6298608;28;19920;-69
2023/01/03 09:17:29;;;;;;;;;;;;;;;6.82;56.17;95304.88;6298350;28;19920;-68
2023/01/03 09:20:33;;;;;;;;;;;;;;;7.09;55.58;95307.22;6298980;28;20009;-69
2023/01/03 09:23:36;;;;;;;;;;;;;;;7.37;55.74;95317.22;6297789;28;19920;-68
2023/01/03 09:26:37;;;;;;;;;;;;;;;7.75;55.27;95329.13;6297595;28;19920;-69
2023/01/03 09:29:41;;;;;;;;;;;;;;;7.57;54.58;95327.94;6297922;28;19931;-69
2023/01/03 09:32:48;;;;;;;;;;;;;;;7.38;54.96;95339.00;6298319;28;19920;-68
2023/01/03 09:35:51;;;;;;;;;;;;;;;7.23;54.53;95350.66;6298400;28;19928;-69
2023/01/03 09:38:52;;;;;;;;;;;;;;;7.70;54.82;95344.38;6298195;28;19920;-69
2023/01/03 09:45:25;;;;;;;;;;;;;;;9.33;51.96;95350.41;6298269;28;20275;-68
2023/01/03 09:48:36;;;;;;;;;;;;;;;9.28;51.30;95344.72;6298265;28;19966;-68
2023/01/03 10:06:26;;;;;;;;;;;;;;;8.99;49.50;95365.53;6297692;28;19920;-70
2023/01/03 10:09:45;;;;;;;;;;;;;;;9.50;49.76;95356.03;6297587;28;19920;-69
2023/01/03 10:12:52;;;;;;;;;;;;;;;9.83;48.83;95355.78;6297479;28;20385;-70
2023/01/03 10:15:59;;;;;;;;;;;;;;;8.04;51.30;95363.53;6296595;28;19928;-70
2023/01/03 10:19:07;;;;;;;;;;;;;;;5.04;56.46;95359.25;6297633;28;20389;-69
2023/01/03 10:22:08;;;;;;;;;;;;;;;2.81;61.85;95359.38;6297295;28;19920;-70
2023/01/03 10:25:13;;;;;;;;;;;;;;;1.70;64.39;95360.38;6297251;28;19950;-68
2023/01/03 10:28:23;;;;;;;;;;;;;;;0.59;65.21;95344.56;6297120;28;19920;-68
2023/01/03 10:31:27;;;;;;;;;;;;;;;-0.08;67.18;95346.09;6297191;28;19920;-68
2023/01/03 10:34:30;;;;;;;;;;;;;;;-0.47;68.29;95344.47;6297011;28;19920;-68
2023/01/03 10:37:34;;;;;;;;;;;;;;;-0.63;68.07;95342.66;6296991;28;20065;-68
2023/01/03 10:40:40;;;;;;;;;;;;;;;-0.78;66.44;95336.44;6296996;28;19920;-69
2023/01/03 10:43:55;;;;;;;;;;;;;;;-1.22;65.96;95341.81;6296386;28;20317;-68
2023/01/03 10:46:59;;;;;;;;;;;;;;;-1.32;66.41;95345.69;6296708;28;20294;-69
2023/01/03 10:50:04;;;;;;;;;;;;;;;-1.57;66.70;95344.16;6296686;28;19920;-68
2023/01/03 10:53:07;;;;;;;;;;;;;;;-1.73;65.79;95361.16;6296583;28;19928;-68
2023/01/03 10:56:14;;;;;;;;;;;;;;;-1.90;65.77;95364.41;6296729;28;19935;-68
2023/01/03 10:59:22;;;;;;;;;;;;;;;-2.14;65.61;95376.53;6296476;28;19920;-68
2023/01/03 11:02:29;;;;;;;;;;;;;;;-2.49;67.32;95391.63;6295343;28;19943;-68
2023/01/03 11:05:30;;;;;;;;;;;;;;;-2.81;68.38;95395.34;6296525;28;19931;-67
2023/01/03 11:08:43;;;;;;;;;;;;;;;-2.90;69.22;95400.84;6296482;28;19920;-67
2023/01/03 11:11:52;;;;;;;;;;;;;;;-3.05;70.37;95397.09;6296181;28;19924;-67
2023/01/03 11:14:59;;;;;;;;;;;;;;;-2.98;69.62;95408.81;6296307;28;19924;-67
2023/01/03 11:18:05;;;;;;;;;;;;;;;-3.06;69.67;95418.53;6296097;28;19942;-68
2023/01/03 11:21:27;;;;;;;;;;;;;;;-3.14;70.13;95438.53;6295689;28;19942;-68
2023/01/03 11:24:28;;;;;;;;;;;;;;;-3.10;69.64;95440.13;6295768;28;19924;-68
2023/01/03 11:27:50;;;;;;;;;;;;;;;-3.26;69.92;95450.09;6295746;28;19920;-68
2023/01/03 11:31:13;;;;;;;;;;;;;;;-3.41;70.05;95466.88;6296165;28;20456;-68
2023/01/03 11:34:35;;;;;;;;;;;;;;;-3.46;70.30;95461.03;6295913;28;20329;-68
2023/01/03 11:37:51;;;;;;;;;;;;;;;-3.53;70.42;95475.00;6295171;28;19920;-68
2023/01/03 11:41:10;;;;;;;;;;;;;;;-3.66;70.42;95467.66;6295392;28;20049;-67
2023/01/03 11:44:30;;;;;;;;;;;;;;;-3.74;70.96;95479.06;6295130;28;20022;-68
2023/01/03 11:47:31;;;;;;;;;;;;;;;-3.80;71.35;95481.84;6294996;28;20390;-68
2023/01/03 11:50:50;;;;;;;;;;;;;;;-3.91;71.37;95484.72;6294953;28;20065;-67
2023/01/03 11:54:10;;;;;;;;;;;;;;;-4.04;72.03;95481.72;6295252;28;19927;-69
2023/01/03 11:57:35;;;;;;;;;;;;;;;-4.09;72.07;95498.97;6295688;28;19920;-70
2023/01/03 12:00:41;;;;;;;;;;;;;;;-4.04;72.65;95509.13;6295295;28;19920;-68
2023/01/03 12:04:03;;;;;;;;;;;;;;;-4.18;72.99;95505.22;6295316;28;19920;-68
2023/01/03 12:07:13;;;;;;;;;;;;;;;-4.17;73.33;95506.91;6295458;28;19920;-67
2023/01/03 12:10:40;;;;;;;;;;;;;;;-4.11;73.46;95517.00;6295057;28;19916;-68
2023/01/03 12:13:53;;;;;;;;;;;;;;;-4.09;72.81;95530.66;6287046;28;19935;-68
2023/01/03 12:17:03;;;;;;;;;;;;;;;-4.02;73.02;95535.59;6295369;28;20394;-68
2023/01/03 12:20:10;;;;;;;;;;;;;;;-4.14;72.96;95553.06;6294734;28;19920;-69
2023/01/03 12:23:33;;;;;;;;;;;;;;;-4.06;73.29;95551.09;6295044;28;19982;-69
2023/01/03 12:26:40;;;;;;;;;;;;;;;-3.99;73.46;95556.06;6295284;28;20425;-69
2023/01/03 12:29:59;;;;;;;;;;;;;;;-3.92;73.81;95567.84;6294711;28;19920;-68
2023/01/03 12:33:20;;;;;;;;;;;;;;;-3.85;73.59;95569.34;6294792;28;19924;-68
2023/01/03 12:36:24;;;;;;;;;;;;;;;-3.58;73.47;95582.28;6285157;28;19990;-67
2023/01/03 12:39:33;;;;;;;;;;;;;;;-3.65;73.49;95592.75;6296899;28;19920;-68
2023/01/03 12:43:00;;;;;;;;;;;;;;;-3.63;74.15;95585.81;6299256;28;19920;-67
2023/01/03 12:46:06;;;;;;;;;;;;;;;-3.61;74.28;95589.19;6299034;28;20397;-68
2023/01/03 12:49:18;;;;;;;;;;;;;;;-3.53;74.41;95601.00;6299253;28;20347;-68
2023/01/03 12:52:23;;;;;;;;;;;;;;;-3.41;74.57;95605.75;6299182;28;19924;-67
2023/01/03 12:55:36;;;;;;;;;;;;;;;-3.46;74.95;95608.44;6299422;28;20381;-68
2023/01/03 12:59:02;;;;;;;;;;;;;;;-3.52;75.00;95608.66;6299258;28;19920;-67
2023/01/03 13:02:20;;;;;;;;;;;;;;;-3.45;75.11;95617.03;6298987;28;20441;-67
2023/01/03 13:05:21;;;;;;;;;;;;;;;-3.33;75.41;95624.38;6298697;28;19970;-67
2023/01/03 13:08:28;;;;;;;;;;;;;;;-3.21;75.47;95629.13;6298711;28;20358;-67
2023/01/03 13:11:32;;;;;;;;;;;;;;;-3.07;75.71;95630.44;6298966;28;19999;-67
2023/01/03 13:14:56;;;;;;;;;;;;;;;-2.95;75.73;95619.75;6298785;28;20377;-67
2023/01/03 13:18:15;;;;;;;;;;;;;;;-2.84;75.69;95633.13;6299319;28;20013;-68
2023/01/03 13:21:35;;;;;;;;;;;;;;;-2.74;76.20;95634.50;6298728;28;19921;-68
2023/01/03 13:24:43;;;;;;;;;;;;;;;-2.64;75.83;95640.19;6297953;28;19921;-68
2023/01/03 13:27:49;;;;;;;;;;;;;;;-2.53;75.97;95642.41;6297933;28;20023;-68
2023/01/03 13:31:11;;;;;;;;;;;;;;;-2.49;76.09;95639.69;6298615;28;19920;-68
2023/01/03 13:34:17;;;;;;;;;;;;;;;-2.38;75.90;95646.22;6297688;28;19920;-69
2023/01/03 13:37:24;;;;;;;;;;;;;;;-2.38;75.98;95647.03;6298482;28;19924;-67
2023/01/03 13:40:29;;;;;;;;;;;;;;;-2.37;75.69;95648.75;6298402;28;19920;-67
2023/01/03 13:43:34;;;;;;;;;;;;;;;-2.28;75.48;95645.84;6297883;28;20290;-68
2023/01/03 13:46:38;;;;;;;;;;;;;;;-2.29;75.83;95651.91;6297703;28;19967;-67
2023/01/03 13:49:47;;;;;;;;;;;;;;;-2.24;76.11;95656.06;6297751;28;19920;-69
2023/01/03 13:53:02;;;;;;;;;;;;;;;-2.10;75.66;95654.66;6298112;28;20077;-68
2023/01/03 13:56:15;;;;;;;;;;;;;;;-2.14;75.71;95660.00;6298192;28;20289;-68
2023/01/03 13:59:28;;;;;;;;;;;;;;;-1.98;75.73;95666.31;6297880;28;20393;-68
2023/01/03 14:02:32;;;;;;;;;;;;;;;-2.01;75.15;95663.81;6297062;28;20290;-68
2023/01/03 14:05:53;;;;;;;;;;;;;;;-1.95;74.43;95665.34;6297876;28;19920;-68
2023/01/03 14:09:05;;;;;;;;;;;;;;;-2.06;74.32;95658.84;6297895;28;19927;-68
2023/01/03 14:12:18;;;;;;;;;;;;;;;-2.08;74.33;95665.78;6297585;28;19920;-68
2023/01/03 14:15:20;;;;;;;;;;;;;;;-2.07;74.30;95664.03;6297150;28;19920;-68
2023/01/03 14:18:26;;;;;;;;;;;;;;;-2.10;73.80;95666.72;6297233;28;19920;-68
2023/01/03 14:21:34;;;;;;;;;;;;;;;-1.94;73.12;95657.56;6297110;28;19953;-68
2023/01/03 14:24:35;;;;;;;;;;;;;;;-2.27;72.73;95657.00;6295746;28;20405;-68
2023/01/03 14:27:38;;;;;;;;;;;;;;;-2.50;73.66;95653.44;6297284;28;20002;-69
2023/01/03 14:30:42;;;;;;;;;;;;;;;-2.61;73.86;95659.84;6297313;28;20405;-67
2023/01/03 14:33:50;;;;;;;;;;;;;;;-2.64;74.11;95659.94;6297123;28;20015;-67
2023/01/03 14:36:58;;;;;;;;;;;;;;;-2.59;74.14;95666.63;6296655;28;19955;-69
2023/01/03 14:40:01;;;;;;;;;;;;;;;-2.23;74.41;95660.31;6297012;28;19928;-68
2023/01/03 14:43:03;;;;;;;;;;;;;;;-2.39;73.50;95665.97;6296779;28;20320;-67
2023/01/03 14:46:05;;;;;;;;;;;;;;;-2.39;74.22;95657.41;6296621;28;19927;-67
2023/01/03 14:49:18;;;;;;;;;;;;;;;-2.21;73.50;95668.81;6296335;28;19920;-68
2023/01/03 14:52:32;;;;;;;;;;;;;;;-2.20;73.10;95670.53;6296979;28;20018;-68
2023/01/03 14:55:36;;;;;;;;;;;;;;;-2.21;73.01;95661.09;6296781;28;19920;-68
2023/01/03 14:58:47;;;;;;;;;;;;;;;-2.30;72.62;95659.69;6296684;28;19924;-68
2023/01/03 15:01:51;;;;;;;;;;;;;;;-2.30;72.83;95647.63;6296167;28;19924;-68
2023/01/03 15:04:56;;;;;;;;;;;;;;;-2.23;73.11;95639.72;6296125;28;19920;-69
2023/01/03 15:08:21;;;;;;;;;;;;;;;-2.22;72.62;95646.53;6296547;28;19924;-68
2023/01/03 15:11:27;;;;;;;;;;;;;;;-2.27;72.40;95647.53;6296302;28;19921;-69
2023/01/03 15:14:32;;;;;;;;;;;;;;;-2.36;72.26;95645.25;6296199;28;20382;-68
2023/01/03 15:17:36;;;;;;;;;;;;;;;-2.49;72.17;95649.16;6295884;28;19943;-68
2023/01/03 15:20:41;;;;;;;;;;;;;;;-2.56;72.28;95648.50;6295779;28;20412;-69
2023/01/03 15:23:45;;;;;;;;;;;;;;;-2.55;72.75;95655.38;6296283;28;19920;-68
2023/01/03 15:26:47;;;;;;;;;;;;;;;-2.53;72.29;95642.41;6295523;28;19939;-69
2023/01/03 15:29:51;;;;;;;;;;;;;;;-2.49;72.11;95636.28;6295915;28;19920;-69
2023/01/03 15:32:56;;;;;;;;;;;;;;;-2.72;72.53;95650.75;6294696;28;20475;-69
2023/01/03 15:36:15;;;;;;;;;;;;;;;-2.82;72.26;95626.19;6295328;28;19927;-68
2023/01/03 15:39:21;;;;;;;;;;;;;;;-2.84;73.02;95652.88;6295919;28;19920;-67
2023/01/03 15:46:04;;;;;;;;;;;;;;;-3.05;73.03;95649.25;6261940;28;20046;-67
2023/01/03 15:49:05;;;;;;;;;;;;;;;-3.16;72.80;95663.28;6295101;28;19927;-68
2023/01/03 15:52:12;;;;;;;;;;;;;;;-3.27;72.47;95657.63;6295864;28;19920;-69
2023/01/03 15:55:16;;;;;;;;;;;;;;;-3.09;72.28;95673.38;6295397;28;20305;-67
2023/01/03 15:58:17;;;;;;;;;;;;;;;-2.87;70.63;95689.00;6295400;28;20393;-68
2023/01/03 16:01:21;;;;;;;;;;;;;;;-2.86;70.26;95696.69;6277534;28;19921;-69
2023/01/03 16:04:28;;;;;;;;;;;;;;;-2.83;70.01;95681.16;6295480;28;19939;-67
2023/01/03 16:07:29;;;;;;;;;;;;;;;-2.82;70.51;95693.13;6295071;28;20036;-69
2023/01/03 16:10:30;;;;;;;;;;;;;;;-2.77;70.36;95696.41;6295132;28;19920;-68
2023/01/03 16:13:35;;;;;;;;;;;;;;;-2.83;70.32;95694.03;6295560;28;20287;-69
2023/01/03 16:16:39;;;;;;;;;;;;;;;-2.78;70.28;95699.84;6299641;28;19920;-69
2023/01/03 16:19:40;;;;;;;;;;;;;;;-2.63;69.65;95707.97;6299982;28;19931;-69
2023/01/03 16:22:45;;;;;;;;;;;;;;;-2.53;68.56;95704.22;6299629;28;19920;-68
2023/01/03 16:25:46;;;;;;;;;;;;;;;-2.83;69.00;95691.44;6300009;28;19981;-69
2023/01/03 16:28:47;;;;;;;;;;;;;;;-2.90;70.03;95681.38;6299713;28;19928;-69
2023/01/03 16:31:53;;;;;;;;;;;;;;;-3.02;70.25;95686.03;6300143;28;19925;-68
2023/01/03 16:35:02;;;;;;;;;;;;;;;-3.07;71.00;95689.63;6299068;28;19920;-69
2023/01/03 16:38:04;;;;;;;;;;;;;;;-2.98;71.32;95687.59;6299415;28;20298;-69
2023/01/03 16:41:07;;;;;;;;;;;;;;;-2.92;72.05;95696.03;6299561;28;19920;-68
2023/01/03 16:44:13;;;;;;;;;;;;;;;-2.83;71.26;95694.03;6299825;28;19920;-69
2023/01/03 16:47:20;;;;;;;;;;;;;;;-2.59;70.56;95704.44;6298969;28;20283;-67
2023/01/03 16:50:24;;;;;;;;;;;;;;;-2.54;69.10;95693.09;6299407;28;20385;-69
2023/01/03 16:53:34;;;;;;;;;;;;;;;-2.72;68.97;95697.09;6299625;28;19927;-68
2023/01/03 16:56:37;;;;;;;;;;;;;;;-2.50;67.81;95707.53;6298710;28;20301;-68
2023/01/03 16:59:46;;;;;;;;;;;;;;;-2.62;67.97;95701.97;6299443;28;19920;-69
2023/01/03 17:02:50;;;;;;;;;;;;;;;-2.71;68.65;95700.50;6299431;28;19920;-69
2023/01/03 17:05:55;;;;;;;;;;;;;;;-2.72;69.22;95693.66;6298822;28;20270;-68
2023/01/03 17:08:58;;;;;;;;;;;;;;;-2.73;69.72;95704.88;6299313;28;19926;-69
2023/01/03 17:12:04;;;;;;;;;;;;;;;-2.71;69.73;95716.81;6298973;28;19924;-68
2023/01/03 17:15:08;;;;;;;;;;;;;;;-2.68;69.73;95712.47;6298905;28;20014;-68
2023/01/03 17:18:17;;;;;;;;;;;;;;;-2.66;70.21;95719.25;6297925;28;19927;-68
2023/01/03 17:21:23;;;;;;;;;;;;;;;-2.64;70.53;95717.44;6299106;28;19920;-69
2023/01/03 17:28:25;;;;;;;;;;;;;;;-2.57;71.17;95734.41;6284897;28;20031;-68
2023/01/03 17:31:32;;;;;;;;;;;;;;;-2.54;71.41;95733.47;6298740;28;19929;-68
2023/01/03 17:34:46;;;;;;;;;;;;;;;-2.43;71.83;95744.28;6298217;28;19985;-68